CST,Max TemperatureF,Mean TemperatureF,Min TemperatureF,Max Dew PointF,MeanDew PointF,Min DewpointF,Max Humidity, Mean Humidity, Min Humidity, Max Sea Level PressureIn, Mean Sea Level PressureIn, Min Sea Level PressureIn, Max VisibilityMiles, Mean VisibilityMiles, Min VisibilityMiles, Max Wind SpeedMPH, Mean Wind SpeedMPH, Max Gust SpeedMPH,PrecipitationIn, CloudCover, Events, WindDirDegrees
2011-11-1,64,50,35,43,35,32,87,66,42,30.07,30.00,29.90,10,10,10,16,10,21,0.00,0,,159
2011-11-2,60,48,35,45,38,34,93,72,42,30.12,30.02,29.93,10,9,1,20,11,26,0.55,7,Rain-Snow,9
2011-11-3,50,44,39,36,33,28,87,68,43,30.20,30.12,30.04,10,10,10,20,11,28,0.00,2,,26
2011-11-4,51,40,30,36,31,27,87,70,47,30.34,30.26,30.20,10,10,10,13,5,,0.00,0,,120
2011-11-5,53,44,35,41,36,32,93,73,54,30.20,30.08,29.93,10,10,7,21,13,29,0.00,0,,149
2011-11-6,60,52,44,46,42,36,82,69,55,30.02,29.89,29.85,10,10,7,23,14,30,0.00,3,,193
2011-11-7,57,47,37,34,28,18,81,50,23,30.22,30.17,30.09,10,10,7,8,5,,0.00,0,,242
2011-11-8,50,44,39,39,36,21,93,83,32,30.18,30.07,30.00,10,8,3,18,10,23,0.54,8,Rain,44
2011-11-9,41,37,33,37,33,28,93,87,75,29.93,29.82,29.68,10,5,0,28,17,37,0.84,6,Rain-Snow,335
2011-11-10,37,34,32,32,28,23,87,77,69,30.02,29.96,29.91,10,10,2,16,11,22,0.00,7,Snow,282
2011-11-11,42,35,28,30,26,23,86,72,46,30.00,29.84,29.69,10,10,10,13,6,16,0.00,2,,181
2011-11-12,51,42,33,37,34,30,93,70,54,29.70,29.63,29.49,10,10,10,15,9,20,0.00,0,,170
2011-11-13,60,54,48,50,42,34,88,69,54,29.52,29.35,29.23,10,10,10,23,14,31,0.00,4,,216
2011-11-14,53,46,39,39,34,27,87,67,47,29.70,29.59,29.50,10,10,10,18,6,21,0.00,3,Rain,213
2011-11-15,55,44,33,34,29,25,81,56,38,29.84,29.70,29.65,10,10,7,18,9,23,0.00,1,,221
2011-11-16,39,34,28,21,15,7,64,49,26,30.10,30.05,29.90,10,10,10,18,11,26,0.00,0,,281
2011-11-17,33,27,21,16,12,7,74,53,32,30.17,30.13,30.09,10,10,10,20,10,25,0.00,0,,267
2011-11-18,50,39,28,23,21,18,69,49,32,30.05,29.86,29.73,10,10,10,28,13,37,0.00,0,,185
2011-11-19,51,46,41,43,32,21,93,63,42,29.79,29.72,29.62,10,10,4,14,8,18,0.00,8,Rain,168
2011-11-20,39,36,33,34,31,28,93,82,70,30.30,30.21,29.96,10,10,10,18,10,28,0.00,8,,5
2011-11-21,44,37,30,32,30,27,93,78,57,30.32,30.26,30.19,10,10,10,13,6,17,0.00,2,,87
2011-11-22,41,36,32,36,33,30,100,86,76,30.21,30.05,29.93,10,7,2,13,7,16,0.00,6,,43
2011-11-23,48,39,30,36,33,28,93,82,58,30.19,30.14,30.07,10,6,1,12,3,16,0.00,2,,251
2011-11-24,50,44,39,45,40,36,93,85,71,30.16,30.06,29.93,10,4,0,16,11,23,0.00,5,Fog,196
2011-11-25,51,46,42,43,40,37,82,74,67,29.90,29.84,29.79,10,10,10,18,13,26,0.00,4,,200
2011-11-26,53,45,37,50,43,36,94,85,62,29.86,29.78,29.74,10,6,2,17,10,28,0.25,8,Rain,235
2011-11-27,37,34,32,36,29,25,93,81,75,30.16,30.03,29.85,10,10,5,21,14,28,0.00,8,,346
2011-11-28,33,30,26,28,26,23,86,79,75,30.16,30.10,30.03,10,10,10,8,3,,0.00,5,,333
2011-11-29,39,34,28,28,22,14,87,66,36,30.11,30.06,30.00,10,10,10,22,15,28,0.00,0,,357
2011-11-30,44,32,21,19,14,-2,86,53,14,30.10,30.03,30.00,10,10,10,14,6,10,0.00,1,,242